This is the latest recevied weather packets stored in our database for station/object IZ3VCM. If no packets are shown the sender has not sent any weather packets the latest 10 day(s).
| Time | Temp. | Humidity | Pressure | Rain* | Wind** | Luminosity | Snow |
|---|---|---|---|---|---|---|---|
| 1777974303 | 15.56° C | 85% | 1013.3 hPa | 0.51 mm | - | - | - |
| 1777973405 | 15.56° C | 84% | 1013.8 hPa | 0.51 mm | - | - | - |
| 1777972503 | 15.56° C | 84% | 1013.9 hPa | 0.51 mm | - | - | - |
| 1777971605 | 16.11° C | 84% | 1013.5 hPa | 1.27 mm | - | - | - |
| 1777970703 | 16.11° C | 84% | 1013.5 hPa | 1.27 mm | - | - | - |
| 1777969805 | 15.56° C | 83% | 1013.7 hPa | 1.27 mm | - | - | - |
| 1777968903 | 15° C | 82% | 1013.6 hPa | 0.51 mm | - | - | - |
| 1777968005 | 15.56° C | 80% | 1013.8 hPa | 0 mm | - | - | - |
| 1777967103 | 15.56° C | 77% | 1013.6 hPa | 0 mm | - | - | - |
| 1777966204 | 16.11° C | 75% | 1013.7 hPa | 0 mm | - | - | - |
| 1777965303 | 16.11° C | 74% | 1013.7 hPa | 0 mm | - | - | - |
| 1777964405 | 16.11° C | 76% | 1013.3 hPa | 0 mm | - | - | - |
| 1777963506 | 15.56° C | 77% | 1013.3 hPa | 0 mm | - | - | - |
| 1777962607 | 15.56° C | 78% | 1013.3 hPa | 0 mm | - | - | - |
| 1777932904 | 16.11° C | 69% | 1014.7 hPa | 0 mm | - | - | - |
| 1777932006 | 16.11° C | 68% | 1014.8 hPa | 0 mm | - | - | - |
| 1777931105 | 16.67° C | 67% | 1014.9 hPa | 0 mm | - | - | - |
| 1777930206 | 16.67° C | 66% | 1015 hPa | 0 mm | - | - | - |
| 1777929305 | 16.67° C | 66% | 1015.1 hPa | 0 mm | - | - | - |
| 1777928407 | 17.22° C | 64% | 1015.3 hPa | 0 mm | - | - | - |
| 1777927503 | 17.78° C | 63% | 1015.3 hPa | 0 mm | - | - | - |
| 1777926606 | 17.78° C | 62% | 1015.2 hPa | 0 mm | - | - | - |
| 1777925705 | 18.33° C | 61% | 1015.1 hPa | 0 mm | - | - | - |
| 1777924806 | 18.33° C | 60% | 1015 hPa | 0 mm | - | - | - |
| 1777923904 | 18.33° C | 59% | 1015 hPa | 0 mm | - | - | - |
* Rain latest hour (hover to see other rain measurements)
** Current wind speed in m/s (hover to see current wind gust speed)